createdAt,value
2018-12-02T00:01:52.504Z,12.60
2018-12-02T00:04:34.015Z,12.60
2018-12-02T00:07:15.577Z,12.60
2018-12-02T00:09:57.272Z,12.60
2018-12-02T00:12:39.469Z,12.60
2018-12-02T00:15:20.548Z,12.70
2018-12-02T00:18:02.238Z,12.60
2018-12-02T00:20:44.077Z,12.70
2018-12-02T00:23:25.731Z,12.70
2018-12-02T00:26:07.214Z,12.70
2018-12-02T00:28:48.736Z,12.70
2018-12-02T00:31:30.602Z,12.70
2018-12-02T00:34:12.080Z,12.80
2018-12-02T00:36:54.457Z,12.70
2018-12-02T00:39:35.360Z,12.70
2018-12-02T00:42:16.855Z,12.80
2018-12-02T00:44:58.673Z,12.70
2018-12-02T00:47:40.331Z,12.80
2018-12-02T00:50:21.820Z,12.80
2018-12-02T00:53:03.405Z,12.80
2018-12-02T00:55:45.095Z,12.80
2018-12-02T00:58:27.453Z,12.80
2018-12-02T01:01:08.583Z,12.80
2018-12-02T01:03:50.272Z,12.80
2018-12-02T01:06:32.874Z,12.80
2018-12-02T01:09:14.206Z,12.80
2018-12-02T01:11:55.757Z,12.90
2018-12-02T01:14:37.551Z,12.80
2018-12-02T01:17:19.035Z,12.90
2018-12-02T01:20:00.622Z,12.90
2018-12-02T01:22:42.209Z,12.90
2018-12-02T01:25:23.833Z,12.90
2018-12-02T01:28:05.617Z,12.90
2018-12-02T01:30:47.185Z,12.90
2018-12-02T01:33:29.077Z,12.90
2018-12-02T01:36:10.564Z,12.90
2018-12-02T01:38:53.180Z,12.90
2018-12-02T01:41:34.866Z,12.90
2018-12-02T01:44:16.600Z,12.90
2018-12-02T01:46:58.147Z,12.90
2018-12-02T01:49:39.941Z,12.90
2018-12-02T01:52:21.313Z,12.90
2018-12-02T01:55:03.018Z,12.90
2018-12-02T01:57:44.400Z,12.90
2018-12-02T02:00:26.816Z,12.90
2018-12-02T02:03:08.500Z,12.90
2018-12-02T02:05:49.916Z,13.00
2018-12-02T02:08:31.676Z,12.90
2018-12-02T02:11:13.468Z,12.90
2018-12-02T02:13:54.852Z,13.00
2018-12-02T02:16:36.675Z,13.00
2018-12-02T02:19:18.759Z,12.90
2018-12-02T02:22:00.044Z,12.90
2018-12-02T02:24:41.719Z,12.90
2018-12-02T02:27:23.759Z,13.00
2018-12-02T02:30:04.901Z,13.00
2018-12-02T02:32:46.386Z,13.00
2018-12-02T02:35:27.870Z,12.90
2018-12-02T02:38:09.562Z,12.90
2018-12-02T02:40:51.463Z,12.80
2018-12-02T02:43:33.253Z,12.70
2018-12-02T02:46:14.737Z,12.70
2018-12-02T02:48:56.227Z,12.70
2018-12-02T02:51:38.049Z,12.60
2018-12-02T02:54:19.733Z,12.50
2018-12-02T02:57:01.516Z,12.50
2018-12-02T02:59:43.089Z,12.50
2018-12-02T03:02:24.692Z,12.40
2018-12-02T03:05:06.170Z,12.40
2018-12-02T03:07:47.657Z,12.40
2018-12-02T03:10:29.177Z,12.40
2018-12-02T03:13:10.829Z,12.40
2018-12-02T03:15:52.520Z,12.40
2018-12-02T03:18:34.211Z,12.40
2018-12-02T03:21:15.935Z,12.40
2018-12-02T03:23:57.697Z,12.40
2018-12-02T03:26:39.590Z,12.40
2018-12-02T03:29:21.082Z,12.40
2018-12-02T03:32:02.666Z,12.40
2018-12-02T03:34:44.359Z,12.40
2018-12-02T03:37:25.946Z,12.40
2018-12-02T03:40:07.433Z,12.30
2018-12-02T03:42:49.067Z,12.30
2018-12-02T03:45:30.715Z,12.30
2018-12-02T03:48:12.403Z,12.30
2018-12-02T03:50:53.829Z,12.20
2018-12-02T03:53:35.581Z,12.30
2018-12-02T03:56:18.468Z,12.30
2018-12-02T03:59:01.113Z,12.30
2018-12-02T04:01:42.601Z,12.20
2018-12-02T04:04:24.495Z,12.20
2018-12-02T04:07:05.913Z,12.20
2018-12-02T04:09:47.575Z,12.20
2018-12-02T04:12:31.312Z,12.20
2018-12-02T04:15:13.104Z,12.20
2018-12-02T04:17:54.693Z,12.30
2018-12-02T04:20:36.589Z,12.30
2018-12-02T04:23:17.665Z,12.30
2018-12-02T04:25:59.364Z,12.30
2018-12-02T04:28:41.047Z,12.30
2018-12-02T04:31:22.676Z,12.30
2018-12-02T04:34:04.643Z,12.30
2018-12-02T04:36:45.814Z,12.30
2018-12-02T04:39:27.407Z,12.40
2018-12-02T04:42:09.298Z,12.30
2018-12-02T04:44:50.686Z,12.30
2018-12-02T04:47:32.475Z,12.30
2018-12-02T04:50:14.475Z,12.30
2018-12-02T04:52:55.657Z,12.30
2018-12-02T04:55:37.858Z,12.30
2018-12-02T04:58:19.141Z,12.30
2018-12-02T05:01:00.934Z,12.30
2018-12-02T05:03:42.316Z,12.30
2018-12-02T05:06:23.909Z,12.30
2018-12-02T05:09:05.493Z,12.20
2018-12-02T05:11:46.809Z,12.30
2018-12-02T05:14:28.469Z,12.30
2018-12-02T05:17:10.158Z,12.30
2018-12-02T05:19:52.873Z,12.20
2018-12-02T05:22:34.461Z,12.20
2018-12-02T05:25:18.025Z,12.20
2018-12-02T05:27:57.646Z,12.20
2018-12-02T05:30:39.164Z,12.10
2018-12-02T05:33:20.821Z,12.10
2018-12-02T05:36:02.403Z,12.10
2018-12-02T05:38:44.198Z,12.10
2018-12-02T05:41:29.782Z,12.10
2018-12-02T05:44:11.267Z,12.10
2018-12-02T05:46:52.452Z,12.10
2018-12-02T05:49:33.318Z,12.10
2018-12-02T05:52:15.213Z,12.10
2018-12-02T05:54:56.802Z,12.10
2018-12-02T05:57:39.312Z,12.10
2018-12-02T06:00:21.212Z,12.10
2018-12-02T06:03:02.935Z,12.10
2018-12-02T06:05:44.509Z,12.00
2018-12-02T06:08:26.209Z,12.00
2018-12-02T06:11:07.707Z,12.00
2018-12-02T06:13:49.463Z,12.10
2018-12-02T06:16:31.049Z,12.10
2018-12-02T06:19:12.738Z,12.10
2018-12-02T06:21:54.432Z,12.10
2018-12-02T06:24:36.122Z,12.20
2018-12-02T06:27:17.920Z,12.20
2018-12-02T06:29:59.812Z,12.20
2018-12-02T06:32:41.399Z,12.20
2018-12-02T06:35:23.193Z,12.30
2018-12-02T06:38:04.806Z,12.30
2018-12-02T06:40:46.370Z,12.20
2018-12-02T06:43:27.760Z,12.20
2018-12-02T06:46:09.346Z,12.20
2018-12-02T06:48:51.033Z,12.30
2018-12-02T06:51:32.523Z,12.30
2018-12-02T06:54:15.134Z,12.30
2018-12-02T06:56:56.926Z,12.30
2018-12-02T06:59:38.617Z,12.30
2018-12-02T07:02:20.125Z,12.30
2018-12-02T07:05:02.433Z,12.30
2018-12-02T07:07:43.589Z,12.30
2018-12-02T07:10:25.279Z,12.30
2018-12-02T07:13:06.971Z,12.20
2018-12-02T07:15:48.764Z,12.20
2018-12-02T07:18:30.762Z,12.20
2018-12-02T07:21:12.253Z,12.20
2018-12-02T07:23:54.075Z,12.20
2018-12-02T07:26:35.937Z,12.20
2018-12-02T07:29:17.431Z,12.20
2018-12-02T07:31:59.323Z,12.50
2018-12-02T07:34:40.809Z,13.10
2018-12-02T07:37:22.440Z,13.60
2018-12-02T07:40:04.189Z,13.90
2018-12-02T07:42:45.680Z,14.00
2018-12-02T07:45:26.547Z,13.90
2018-12-02T07:48:08.240Z,13.80
2018-12-02T07:50:49.831Z,14.30
2018-12-02T07:53:31.244Z,14.60
2018-12-02T07:56:12.907Z,14.80
2018-12-02T07:58:54.823Z,14.90
2018-12-02T08:01:36.401Z,15.00
2018-12-02T08:04:18.697Z,15.60
2018-12-02T08:06:59.875Z,16.60
2018-12-02T08:09:41.461Z,17.20
2018-12-02T08:12:22.948Z,18.00
2018-12-02T08:15:04.437Z,19.00
2018-12-02T08:17:46.331Z,20.10
2018-12-02T08:20:27.921Z,21.00
2018-12-02T08:23:09.404Z,21.70
2018-12-02T08:25:51.301Z,22.70
2018-12-02T08:28:32.789Z,23.60
2018-12-02T08:31:13.760Z,24.20
2018-12-02T08:33:55.525Z,24.90
2018-12-02T08:36:37.043Z,25.40
2018-12-02T08:39:18.630Z,26.10
2018-12-02T08:42:00.424Z,26.60
2018-12-02T08:44:41.909Z,27.10
2018-12-02T08:47:23.910Z,27.50
2018-12-02T08:50:05.589Z,28.00
2018-12-02T08:52:47.187Z,28.40
2018-12-02T08:55:29.598Z,28.70
2018-12-02T08:58:10.777Z,28.70
2018-12-02T09:00:52.362Z,29.00
2018-12-02T09:03:34.406Z,29.00
2018-12-02T09:06:16.461Z,28.60
2018-12-02T09:08:58.370Z,29.00
2018-12-02T09:11:39.952Z,29.20
2018-12-02T09:14:21.740Z,29.60
2018-12-02T09:17:03.638Z,30.10
2018-12-02T09:19:45.764Z,30.40
2018-12-02T09:22:26.815Z,31.10
2018-12-02T09:25:08.403Z,31.30
2018-12-02T09:27:50.196Z,31.60
2018-12-02T09:30:31.688Z,31.80
2018-12-02T09:33:13.487Z,31.60
2018-12-02T09:35:55.280Z,31.60
2018-12-02T09:38:36.761Z,32.10
2018-12-02T09:41:18.671Z,32.50
2018-12-02T09:44:00.292Z,32.70
2018-12-02T09:46:42.465Z,32.90
2018-12-02T09:49:23.826Z,33.10
2018-12-02T09:52:05.827Z,33.40
2018-12-02T09:54:47.336Z,33.70
2018-12-02T09:57:28.801Z,34.00
2018-12-02T10:00:10.601Z,34.20
2018-12-02T10:02:52.728Z,34.30
2018-12-02T10:05:34.182Z,33.70
2018-12-02T10:08:15.359Z,33.30
2018-12-02T10:10:56.951Z,33.80
2018-12-02T10:13:38.638Z,33.70
2018-12-02T10:16:20.535Z,34.10
2018-12-02T10:19:01.509Z,34.30
2018-12-02T10:21:43.301Z,33.20
2018-12-02T10:24:24.890Z,33.20
2018-12-02T10:27:06.385Z,33.90
2018-12-02T10:29:48.610Z,34.40
2018-12-02T10:32:29.894Z,34.80
2018-12-02T10:35:11.558Z,34.20
2018-12-02T10:37:53.516Z,34.70
2018-12-02T10:40:34.936Z,34.40
2018-12-02T10:43:16.522Z,34.50
2018-12-02T10:45:58.317Z,34.30
2018-12-02T10:48:39.903Z,33.00
2018-12-02T10:51:22.214Z,32.80
2018-12-02T10:54:03.109Z,33.30
2018-12-02T10:56:44.980Z,33.90
2018-12-02T10:59:26.774Z,34.70
2018-12-02T11:02:16.553Z,34.40
2018-12-02T11:04:58.064Z,33.60
2018-12-02T11:07:39.936Z,33.40
2018-12-02T11:10:21.728Z,31.40
2018-12-02T11:13:03.419Z,30.90
2018-12-02T11:15:45.212Z,30.30
2018-12-02T11:18:26.824Z,29.00
2018-12-02T11:21:08.393Z,28.20
2018-12-02T11:23:50.085Z,27.10
2018-12-02T11:26:31.375Z,26.10
2018-12-02T11:29:13.260Z,25.00
2018-12-02T11:31:54.753Z,24.60
2018-12-02T11:34:36.334Z,23.60
2018-12-02T11:37:17.924Z,23.40
2018-12-02T11:39:59.613Z,23.20
2018-12-02T11:42:41.308Z,22.80
2018-12-02T11:45:22.792Z,22.40
2018-12-02T11:48:03.673Z,22.20
2018-12-02T11:50:45.154Z,21.80
2018-12-02T11:53:26.944Z,21.50
2018-12-02T11:56:08.727Z,21.10
2018-12-02T11:58:50.428Z,20.90
2018-12-02T12:01:31.913Z,20.70
2018-12-02T12:04:13.731Z,20.70
2018-12-02T12:06:55.503Z,20.50
2018-12-02T12:09:37.089Z,20.50
2018-12-02T12:12:18.811Z,20.90
2018-12-02T12:15:00.370Z,20.70
2018-12-02T12:17:42.471Z,20.90
2018-12-02T12:20:23.689Z,21.00
2018-12-02T12:23:04.850Z,21.20
2018-12-02T12:25:46.725Z,21.20
2018-12-02T12:28:28.313Z,21.30
2018-12-02T12:31:09.696Z,21.70
2018-12-02T12:33:51.309Z,22.20
2018-12-02T12:36:32.798Z,22.40
2018-12-02T12:39:15.078Z,22.50
2018-12-02T12:41:56.051Z,23.10
2018-12-02T12:44:37.742Z,24.00
2018-12-02T12:47:19.333Z,24.40
2018-12-02T12:50:01.025Z,24.80
2018-12-02T12:52:42.820Z,25.00
2018-12-02T12:55:24.530Z,25.60
2018-12-02T12:58:06.097Z,25.80
2018-12-02T13:00:47.818Z,25.10
2018-12-02T13:03:29.483Z,25.00
2018-12-02T13:06:11.273Z,24.50
2018-12-02T13:08:52.757Z,23.30
2018-12-02T13:11:34.448Z,21.80
2018-12-02T13:14:15.935Z,21.30
2018-12-02T13:16:57.422Z,20.60
2018-12-02T13:19:39.014Z,20.10
2018-12-02T13:22:20.893Z,19.80
2018-12-02T13:25:02.219Z,19.30
2018-12-02T13:27:43.853Z,18.60
2018-12-02T13:30:25.639Z,18.40
2018-12-02T13:33:07.774Z,18.20
2018-12-02T13:35:48.849Z,18.10
2018-12-02T13:38:30.748Z,18.00
2018-12-02T13:41:12.643Z,18.10
2018-12-02T13:43:54.435Z,18.20
2018-12-02T13:46:36.029Z,18.10
2018-12-02T13:49:17.818Z,18.10
2018-12-02T13:51:59.434Z,18.10
2018-12-02T13:54:41.033Z,18.10
2018-12-02T13:57:22.891Z,18.10
2018-12-02T14:00:04.304Z,18.10
2018-12-02T14:02:45.969Z,18.10
2018-12-02T14:05:27.452Z,18.10
2018-12-02T14:08:10.166Z,18.10
2018-12-02T14:10:51.784Z,18.20
2018-12-02T14:13:33.755Z,18.20
2018-12-02T14:16:15.342Z,18.20
2018-12-02T14:22:04.636Z,18.20
2018-12-02T14:24:46.325Z,18.20
2018-12-02T14:27:28.157Z,18.30
2018-12-02T14:30:09.644Z,18.30
2018-12-02T14:32:51.296Z,18.30
2018-12-02T14:35:33.195Z,18.20
2018-12-02T14:38:14.780Z,18.20
2018-12-02T14:40:56.392Z,18.10
2018-12-02T14:43:37.889Z,18.10
2018-12-02T14:46:19.546Z,18.00
2018-12-02T14:49:02.161Z,18.00
2018-12-02T14:51:43.138Z,17.90
2018-12-02T14:54:24.826Z,17.90
2018-12-02T14:57:06.651Z,17.90
2018-12-02T14:59:48.271Z,17.80
2018-12-02T15:02:29.795Z,17.70
2018-12-02T15:05:11.916Z,17.60
2018-12-02T15:07:53.180Z,17.60
2018-12-02T15:10:34.663Z,17.50
2018-12-02T15:13:16.663Z,17.40
2018-12-02T15:15:57.947Z,17.40
2018-12-02T15:18:39.839Z,17.40
2018-12-02T15:21:21.475Z,17.30
2018-12-02T15:24:03.852Z,17.20
2018-12-02T15:26:44.929Z,17.10
2018-12-02T15:29:26.501Z,17.00
2018-12-02T15:32:07.989Z,17.00
2018-12-02T15:34:49.678Z,17.00
2018-12-02T15:37:31.268Z,17.00
2018-12-02T15:40:12.757Z,17.00
2018-12-02T15:42:54.659Z,16.90
2018-12-02T15:45:36.250Z,16.90
2018-12-02T15:48:17.832Z,16.80
2018-12-02T15:50:59.554Z,16.80
2018-12-02T15:53:41.248Z,16.70
2018-12-02T15:56:22.917Z,16.70
2018-12-02T15:59:08.287Z,16.70
2018-12-02T16:01:49.867Z,16.60
2018-12-02T16:04:31.457Z,16.60
2018-12-02T16:07:12.944Z,16.50
2018-12-02T16:09:54.635Z,16.50
2018-12-02T16:12:36.120Z,16.40
2018-12-02T16:15:17.914Z,16.40
2018-12-02T16:17:59.442Z,16.30
2018-12-02T16:20:41.299Z,16.30
2018-12-02T16:23:22.783Z,16.20
2018-12-02T16:26:04.682Z,16.10
2018-12-02T16:28:46.165Z,16.10
2018-12-02T16:31:27.241Z,16.10
2018-12-02T16:34:09.962Z,16.10
2018-12-02T16:36:51.749Z,16.10
2018-12-02T16:39:33.236Z,16.00
2018-12-02T16:42:15.035Z,16.00
2018-12-02T16:44:56.626Z,16.00
2018-12-02T16:47:38.123Z,15.90
2018-12-02T16:50:19.489Z,15.90
2018-12-02T16:53:01.383Z,15.90
2018-12-02T16:55:43.647Z,15.90
2018-12-02T16:58:25.591Z,15.80
2018-12-02T17:01:07.201Z,15.70
2018-12-02T17:03:48.872Z,15.70
2018-12-02T17:06:30.556Z,15.70
2018-12-02T17:09:12.469Z,15.60
2018-12-02T17:11:53.846Z,15.60
2018-12-02T17:14:38.682Z,15.60
2018-12-02T17:17:17.013Z,15.60
2018-12-02T17:19:58.704Z,15.60
2018-12-02T17:22:40.295Z,15.60
2018-12-02T17:25:22.086Z,15.50
2018-12-02T17:28:03.676Z,15.50
2018-12-02T17:30:45.060Z,15.40
2018-12-02T17:33:26.852Z,15.40
2018-12-02T17:36:08.648Z,15.40
2018-12-02T17:38:50.544Z,15.40
2018-12-02T17:41:31.954Z,15.40
2018-12-02T17:44:13.716Z,15.40
2018-12-02T17:46:55.511Z,15.40
2018-12-02T17:49:38.059Z,15.40
2018-12-02T17:52:20.021Z,15.40
2018-12-02T17:55:01.717Z,15.40
2018-12-02T17:57:43.408Z,15.40
2018-12-02T18:00:27.378Z,15.40
2018-12-02T18:03:09.243Z,15.40
2018-12-02T18:05:50.852Z,15.40
2018-12-02T18:08:32.726Z,15.40
2018-12-02T18:11:14.418Z,15.40
2018-12-02T18:13:58.365Z,15.40
2018-12-02T18:16:39.441Z,15.40
2018-12-02T18:19:20.720Z,15.40
2018-12-02T18:22:01.902Z,15.40
2018-12-02T18:24:43.692Z,15.40
2018-12-02T18:27:25.282Z,15.30
2018-12-02T18:30:06.562Z,15.30
2018-12-02T18:32:48.458Z,15.30
2018-12-02T18:35:29.944Z,15.30
2018-12-02T18:38:12.052Z,15.30
2018-12-02T18:40:53.435Z,15.20
2018-12-02T18:43:34.917Z,15.20
2018-12-02T18:46:16.195Z,15.10
2018-12-02T18:48:57.992Z,15.10
2018-12-02T18:51:39.169Z,15.10
2018-12-02T18:54:21.631Z,15.10
2018-12-02T18:57:03.378Z,15.00
2018-12-02T18:59:45.072Z,15.00
2018-12-02T19:02:26.753Z,15.00
2018-12-02T19:05:08.444Z,15.00
2018-12-02T19:07:50.344Z,15.00
2018-12-02T19:10:32.032Z,15.00
2018-12-02T19:13:13.864Z,14.90
2018-12-02T19:15:55.620Z,14.90
2018-12-02T19:18:37.237Z,14.90
2018-12-02T19:21:18.929Z,14.90
2018-12-02T19:24:00.591Z,14.90
2018-12-02T19:26:42.226Z,14.90
2018-12-02T19:29:23.973Z,14.90
2018-12-02T19:32:05.664Z,14.80
2018-12-02T19:34:47.352Z,14.80
2018-12-02T19:37:28.849Z,14.80
2018-12-02T19:40:10.530Z,14.70
2018-12-02T19:42:54.405Z,14.70
2018-12-02T19:45:35.853Z,14.70
2018-12-02T19:48:16.938Z,14.60
2018-12-02T19:50:58.629Z,14.70
2018-12-02T19:53:40.526Z,14.70
2018-12-02T19:56:21.703Z,14.70
2018-12-02T19:59:03.702Z,14.60
2018-12-02T20:01:45.187Z,14.60
2018-12-02T20:04:27.394Z,14.60
2018-12-02T20:07:08.895Z,14.60
2018-12-02T20:09:50.773Z,14.60
2018-12-02T20:12:32.680Z,14.70
2018-12-02T20:15:14.063Z,14.60
2018-12-02T20:17:55.949Z,14.70
2018-12-02T20:20:41.837Z,14.70
2018-12-02T20:23:28.353Z,14.70
2018-12-02T20:26:10.156Z,14.70
2018-12-02T20:28:51.313Z,14.70
2018-12-02T20:31:33.033Z,14.70
2018-12-02T20:34:15.005Z,14.70
2018-12-02T20:37:02.945Z,14.70
2018-12-02T20:39:44.222Z,14.70
2018-12-02T20:42:25.815Z,14.70
2018-12-02T20:45:07.604Z,14.70
2018-12-02T20:47:49.193Z,14.70
2018-12-02T20:50:31.603Z,14.60
2018-12-02T20:53:16.072Z,14.60
2018-12-02T20:55:55.063Z,14.60
2018-12-02T20:58:36.672Z,14.50
2018-12-02T21:01:18.369Z,14.50
2018-12-02T21:03:59.857Z,14.50
2018-12-02T21:06:41.443Z,14.40
2018-12-02T21:09:23.129Z,14.40
2018-12-02T21:12:04.821Z,14.40
2018-12-02T21:14:46.239Z,14.40
2018-12-02T21:17:27.212Z,14.40
2018-12-02T21:20:08.667Z,14.40
2018-12-02T21:22:50.209Z,14.40
2018-12-02T21:25:31.944Z,14.30
2018-12-02T21:28:13.942Z,14.40
2018-12-02T21:30:55.430Z,14.40
2018-12-02T21:33:37.158Z,14.40
2018-12-02T21:36:18.917Z,14.40
2018-12-02T21:39:00.502Z,14.30
2018-12-02T21:41:41.902Z,14.30
2018-12-02T21:44:23.681Z,14.40
2018-12-02T21:47:05.166Z,14.40
2018-12-02T21:49:46.961Z,14.40
2018-12-02T21:52:28.496Z,14.40
2018-12-02T21:55:10.444Z,14.40
2018-12-02T21:57:51.534Z,14.40
2018-12-02T22:00:37.739Z,14.40
2018-12-02T22:03:20.024Z,14.40
2018-12-02T22:06:01.440Z,14.40
2018-12-02T22:08:43.334Z,14.40
2018-12-02T22:11:25.404Z,14.40
2018-12-02T22:14:07.471Z,14.40
2018-12-02T22:16:48.793Z,14.40
2018-12-02T22:19:30.683Z,14.30
2018-12-02T22:22:12.376Z,14.30
2018-12-02T22:24:53.938Z,14.40
2018-12-02T22:27:36.143Z,14.40
2018-12-02T22:30:18.514Z,14.30
2018-12-02T22:33:00.470Z,14.30
2018-12-02T22:35:41.953Z,14.30
2018-12-02T22:38:23.545Z,14.30
2018-12-02T22:41:04.824Z,14.30
2018-12-02T22:43:46.640Z,14.30
2018-12-02T22:46:28.206Z,14.40
2018-12-02T22:49:09.813Z,14.40
2018-12-02T22:51:51.485Z,14.40
2018-12-02T22:54:33.279Z,14.40
2018-12-02T22:57:15.075Z,14.40
2018-12-02T22:59:56.468Z,14.30
2018-12-02T23:02:42.755Z,14.20
2018-12-02T23:05:24.978Z,14.10
2018-12-02T23:08:06.448Z,14.00
2018-12-02T23:10:47.598Z,13.90
2018-12-02T23:13:28.598Z,13.90
2018-12-02T23:16:10.596Z,13.80
2018-12-02T23:18:51.994Z,13.80
2018-12-02T23:21:33.779Z,13.70
2018-12-02T23:24:15.181Z,13.70
2018-12-02T23:26:56.850Z,13.70
2018-12-02T23:29:38.338Z,13.60
2018-12-02T23:32:19.844Z,13.60
2018-12-02T23:35:02.131Z,13.60
2018-12-02T23:37:43.205Z,13.60
2018-12-02T23:40:25.949Z,13.50
2018-12-02T23:43:07.929Z,13.50
2018-12-02T23:45:49.343Z,13.40
2018-12-02T23:48:31.127Z,13.30
2018-12-02T23:51:12.582Z,13.20
2018-12-02T23:53:54.584Z,13.20
2018-12-02T23:56:36.067Z,13.20
2018-12-02T23:59:17.798Z,13.10
